Time;durP1;ratioP1;P1;durP2;ratioP2;P2;SDS_P1;SDS_P2;PMS_P1;PMS_P2;Temp;Humidity;BMP_temperature;BMP_pressure;BME280_temperature;BME280_humidity;BME280_pressure;Samples;Min_cycle;Max_cycle;Signal;HPM_P1;HPM_P2
2021/01/26 00:00:00;;;;;;;14.80;6.70;;;;;;;;;;5040805;28;20432;-66
2021/01/26 00:02:30;;;;;;;14.37;5.80;;;;;;;;;;5047621;28;20526;-67
2021/01/26 00:04:56;;;;;;;9.52;4.93;;;;;;;;;;5038359;28;20439;-65
2021/01/26 00:07:24;;;;;;;9.47;4.70;;;;;;;;;;5040973;28;20211;-66
2021/01/26 00:09:51;;;;;;;13.13;5.27;;;;;;;;;;5039310;28;20436;-67
2021/01/26 00:12:17;;;;;;;12.30;5.40;;;;;;;;;;5040245;28;20431;-67
2021/01/26 00:14:44;;;;;;;14.68;5.18;;;;;;;;;;5041109;28;20473;-64
2021/01/26 00:17:10;;;;;;;9.60;5.00;;;;;;;;;;5040367;28;20200;-64
2021/01/26 00:19:36;;;;;;;10.90;5.00;;;;;;;;;;5049733;28;21134;-65
2021/01/26 00:22:02;;;;;;;14.00;4.87;;;;;;;;;;5050043;28;20956;-65
2021/01/26 00:24:29;;;;;;;15.50;6.13;;;;;;;;;;5049494;28;20434;-65
2021/01/26 00:26:56;;;;;;;15.47;5.83;;;;;;;;;;5049815;28;20435;-64
2021/01/26 00:29:22;;;;;;;16.10;5.80;;;;;;;;;;5049846;28;20455;-65
2021/01/26 00:31:48;;;;;;;15.53;6.97;;;;;;;;;;5049646;28;20443;-65
2021/01/26 00:34:14;;;;;;;27.80;12.40;;;;;;;;;;5040079;28;20518;-64
2021/01/26 00:36:41;;;;;;;25.67;10.97;;;;;;;;;;5039551;28;20475;-66
2021/01/26 00:39:07;;;;;;;24.50;11.07;;;;;;;;;;5049536;28;20423;-65
2021/01/26 00:41:33;;;;;;;24.17;10.23;;;;;;;;;;5049151;28;20850;-65
2021/01/26 00:43:59;;;;;;;23.60;10.70;;;;;;;;;;5049249;28;20431;-65
2021/01/26 00:46:26;;;;;;;34.97;14.27;;;;;;;;;;5049175;28;20439;-65
2021/01/26 00:48:52;;;;;;;28.53;12.37;;;;;;;;;;5039123;28;20505;-66
2021/01/26 00:51:19;;;;;;;23.63;12.00;;;;;;;;;;5039752;28;20829;-65
2021/01/26 00:53:46;;;;;;;29.83;12.30;;;;;;;;;;5046796;28;20443;-65
2021/01/26 00:56:13;;;;;;;29.70;12.43;;;;;;;;;;5047361;28;20972;-66
2021/01/26 00:58:41;;;;;;;29.47;11.87;;;;;;;;;;5083032;28;21305;-66
2021/01/26 01:01:11;;;;;;;25.97;12.27;;;;;;;;;;5072651;28;20438;-65
2021/01/26 01:03:40;;;;;;;32.00;13.00;;;;;;;;;;5049460;28;20438;-67
2021/01/26 01:06:07;;;;;;;31.53;13.93;;;;;;;;;;5045433;28;20467;-65
2021/01/26 01:08:33;;;;;;;27.27;12.73;;;;;;;;;;5049067;28;20471;-66
2021/01/26 01:11:00;;;;;;;26.67;10.90;;;;;;;;;;5037686;28;21174;-66
2021/01/26 01:13:26;;;;;;;25.38;11.02;;;;;;;;;;5040073;28;20443;-64
2021/01/26 01:15:52;;;;;;;25.53;10.30;;;;;;;;;;5038775;28;20195;-66
2021/01/26 01:18:18;;;;;;;19.17;9.17;;;;;;;;;;5038377;28;20465;-66
2021/01/26 01:20:45;;;;;;;20.92;8.93;;;;;;;;;;5039814;28;20529;-65
2021/01/26 01:23:11;;;;;;;24.63;9.33;;;;;;;;;;5038476;28;20201;-66
2021/01/26 01:25:37;;;;;;;25.00;9.73;;;;;;;;;;5037670;28;20431;-65
2021/01/26 01:28:03;;;;;;;28.83;10.03;;;;;;;;;;5039569;28;20462;-66
2021/01/26 01:30:32;;;;;;;22.07;9.20;;;;;;;;;;5037342;28;20484;-65
2021/01/26 01:33:00;;;;;;;19.17;8.33;;;;;;;;;;5037960;28;20427;-64
2021/01/26 01:35:26;;;;;;;27.80;8.37;;;;;;;;;;5038244;28;20474;-65
2021/01/26 01:37:52;;;;;;;16.60;7.00;;;;;;;;;;5038222;28;20451;-66
2021/01/26 01:40:25;;;;;;;13.50;5.80;;;;;;;;;;5036840;28;20928;-67
2021/01/26 01:42:51;;;;;;;10.87;4.47;;;;;;;;;;5046257;28;20454;-66
2021/01/26 01:45:19;;;;;;;12.20;4.43;;;;;;;;;;5048094;28;20431;-65
2021/01/26 01:48:05;;;;;;;7.57;3.60;;;;;;;;;;5036910;28;20464;-65
2021/01/26 01:50:44;;;;;;;16.03;5.60;;;;;;;;;;5045774;28;20479;-65
2021/01/26 01:53:20;;;;;;;9.70;3.97;;;;;;;;;;5045837;28;21278;-64
2021/01/26 01:56:07;;;;;;;12.53;3.80;;;;;;;;;;5048182;28;20915;-65
2021/01/26 01:58:37;;;;;;;6.13;2.47;;;;;;;;;;5039091;28;20542;-64
2021/01/26 02:01:07;;;;;;;8.07;3.40;;;;;;;;;;5047270;28;21016;-65
2021/01/26 02:03:36;;;;;;;8.53;3.93;;;;;;;;;;5048193;28;20434;-65
2021/01/26 02:06:02;;;;;;;9.57;3.90;;;;;;;;;;5037347;28;20426;-65
2021/01/26 02:08:53;;;;;;;11.20;4.07;;;;;;;;;;5039764;28;20882;-64
2021/01/26 02:11:20;;;;;;;8.20;2.70;;;;;;;;;;5040490;28;20440;-65
2021/01/26 02:13:47;;;;;;;6.70;2.60;;;;;;;;;;5037866;28;20945;-65
2021/01/26 02:16:25;;;;;;;5.67;2.07;;;;;;;;;;5037849;28;20434;-64
2021/01/26 02:19:10;;;;;;;6.27;2.90;;;;;;;;;;5046051;28;20484;-64
2021/01/26 02:21:37;;;;;;;10.43;3.17;;;;;;;;;;5046159;28;20485;-66
2021/01/26 02:24:03;;;;;;;11.83;4.17;;;;;;;;;;5048377;28;20427;-65
2021/01/26 02:26:32;;;;;;;13.63;5.73;;;;;;;;;;5045522;28;20446;-65
2021/01/26 02:29:00;;;;;;;14.33;6.03;;;;;;;;;;5052611;28;20493;-64
2021/01/26 02:31:45;;;;;;;13.47;5.80;;;;;;;;;;5052259;28;21219;-65
2021/01/26 02:34:14;;;;;;;19.43;8.53;;;;;;;;;;5049538;28;20504;-64
2021/01/26 02:36:49;;;;;;;18.37;8.13;;;;;;;;;;5051033;28;20553;-66
2021/01/26 02:39:24;;;;;;;17.60;7.77;;;;;;;;;;5049602;28;20445;-64
2021/01/26 02:42:09;;;;;;;14.63;7.70;;;;;;;;;;5049982;28;20845;-64
2021/01/26 02:44:45;;;;;;;15.43;7.23;;;;;;;;;;5049538;28;20446;-65
2021/01/26 02:47:15;;;;;;;13.57;6.53;;;;;;;;;;5049134;28;20560;-65
2021/01/26 02:49:41;;;;;;;13.00;5.87;;;;;;;;;;5051061;28;20550;-64
2021/01/26 02:52:15;;;;;;;15.13;5.60;;;;;;;;;;5040635;28;20428;-65
2021/01/26 02:54:47;;;;;;;13.50;5.77;;;;;;;;;;5051190;28;20434;-65
2021/01/26 02:57:19;;;;;;;19.20;6.83;;;;;;;;;;5049174;28;20474;-65
2021/01/26 03:00:07;;;;;;;14.60;6.00;;;;;;;;;;5050768;28;20447;-66
2021/01/26 03:02:33;;;;;;;14.80;5.33;;;;;;;;;;5049188;28;20442;-66
2021/01/26 03:05:13;;;;;;;14.90;5.40;;;;;;;;;;5051649;28;20427;-67
2021/01/26 03:07:42;;;;;;;15.30;5.80;;;;;;;;;;5049607;28;20470;-65
2021/01/26 03:10:14;;;;;;;16.00;5.70;;;;;;;;;;5051200;28;20457;-64
2021/01/26 03:12:43;;;;;;;12.40;4.77;;;;;;;;;;5051608;28;20490;-64
2021/01/26 03:15:12;;;;;;;8.80;3.97;;;;;;;;;;5039814;28;20428;-64
2021/01/26 03:17:44;;;;;;;13.50;4.37;;;;;;;;;;5040996;28;20903;-67
2021/01/26 03:20:13;;;;;;;13.43;3.88;;;;;;;;;;5041977;28;21007;-68
2021/01/26 03:22:40;;;;;;;10.13;4.13;;;;;;;;;;5041678;28;20204;-65
2021/01/26 03:25:08;;;;;;;10.73;3.97;;;;;;;;;;5040358;28;20519;-68
2021/01/26 03:27:37;;;;;;;10.37;4.40;;;;;;;;;;5041779;28;21062;-65
2021/01/26 03:30:06;;;;;;;8.30;4.00;;;;;;;;;;5042225;28;20436;-65
2021/01/26 03:32:38;;;;;;;11.57;4.07;;;;;;;;;;5049286;28;20443;-65
2021/01/26 03:35:04;;;;;;;10.60;4.03;;;;;;;;;;5051277;28;20469;-66
2021/01/26 03:37:31;;;;;;;10.97;4.20;;;;;;;;;;5039838;28;20476;-66
2021/01/26 03:39:57;;;;;;;10.80;4.03;;;;;;;;;;5040363;28;20534;-66
2021/01/26 03:42:24;;;;;;;17.23;4.47;;;;;;;;;;5041587;28;20512;-65
2021/01/26 03:44:50;;;;;;;9.47;4.40;;;;;;;;;;5039779;28;20896;-66
2021/01/26 03:47:16;;;;;;;8.50;4.03;;;;;;;;;;5040912;28;20449;-66
2021/01/26 03:49:58;;;;;;;9.80;4.53;;;;;;;;;;5041405;28;20439;-65
2021/01/26 03:52:27;;;;;;;9.03;4.00;;;;;;;;;;5049632;28;20463;-64
2021/01/26 03:55:04;;;;;;;8.30;4.17;;;;;;;;;;5047421;28;20439;-65
2021/01/26 03:57:37;;;;;;;11.87;4.20;;;;;;;;;;5050159;28;21033;-66
2021/01/26 04:00:03;;;;;;;14.77;4.63;;;;;;;;;;5056189;28;20526;-65
2021/01/26 04:02:33;;;;;;;15.83;4.73;;;;;;;;;;5053794;28;20808;-66
2021/01/26 04:05:07;;;;;;;11.10;4.63;;;;;;;;;;5051229;28;20534;-64
2021/01/26 04:07:48;;;;;;;15.93;4.33;;;;;;;;;;5049478;28;20449;-64
2021/01/26 04:10:28;;;;;;;10.40;5.00;;;;;;;;;;5047043;28;20572;-64
2021/01/26 04:13:01;;;;;;;14.77;4.57;;;;;;;;;;5047006;28;20181;-65
2021/01/26 04:15:27;;;;;;;12.80;4.67;;;;;;;;;;5050149;28;20439;-65
2021/01/26 04:17:53;;;;;;;9.70;3.90;;;;;;;;;;5047097;28;20489;-65
2021/01/26 04:20:24;;;;;;;8.43;4.35;;;;;;;;;;5049650;28;20439;-65
2021/01/26 04:22:54;;;;;;;11.43;4.63;;;;;;;;;;5038920;28;20659;-65
2021/01/26 04:25:26;;;;;;;14.95;4.72;;;;;;;;;;5039112;28;20439;-65
2021/01/26 04:27:53;;;;;;;9.05;3.85;;;;;;;;;;5041205;28;20219;-65
2021/01/26 04:30:19;;;;;;;12.38;3.63;;;;;;;;;;5039589;28;20190;-65
2021/01/26 04:32:45;;;;;;;6.75;3.75;;;;;;;;;;5039235;28;20201;-64
2021/01/26 04:35:12;;;;;;;9.00;3.40;;;;;;;;;;5039787;28;20208;-65
2021/01/26 04:37:38;;;;;;;7.17;3.40;;;;;;;;;;5039063;28;20439;-65
2021/01/26 04:40:05;;;;;;;11.40;3.13;;;;;;;;;;5038132;28;20449;-65
2021/01/26 04:42:33;;;;;;;8.38;2.85;;;;;;;;;;5039993;28;20922;-65
2021/01/26 04:45:11;;;;;;;7.20;2.93;;;;;;;;;;5041438;28;20283;-65
2021/01/26 04:47:43;;;;;;;10.25;3.28;;;;;;;;;;5047698;28;20446;-65
2021/01/26 04:50:12;;;;;;;11.50;3.57;;;;;;;;;;5046380;28;20565;-66
2021/01/26 04:52:39;;;;;;;7.93;3.67;;;;;;;;;;5043742;28;20457;-66
2021/01/26 04:55:13;;;;;;;7.22;3.20;;;;;;;;;;5037908;28;20273;-66
2021/01/26 04:57:51;;;;;;;8.43;3.50;;;;;;;;;;5039008;28;20290;-66
2021/01/26 05:00:27;;;;;;;8.80;3.25;;;;;;;;;;5047332;28;20445;-66
2021/01/26 05:02:56;;;;;;;6.50;4.28;;;;;;;;;;5046463;28;20196;-66
2021/01/26 05:05:25;;;;;;;8.40;3.80;;;;;;;;;;5047665;28;20784;-67
2021/01/26 05:07:56;;;;;;;6.67;3.60;;;;;;;;;;5046283;28;20576;-65
2021/01/26 05:10:40;;;;;;;5.78;4.10;;;;;;;;;;5046918;28;20471;-65
2021/01/26 05:13:13;;;;;;;6.95;4.10;;;;;;;;;;5048054;28;20300;-65
2021/01/26 05:15:42;;;;;;;9.90;4.45;;;;;;;;;;5048532;28;20212;-67
2021/01/26 05:18:11;;;;;;;7.18;4.40;;;;;;;;;;5049026;28;20189;-65
2021/01/26 05:20:40;;;;;;;9.00;4.25;;;;;;;;;;5048156;28;20211;-66
2021/01/26 05:23:18;;;;;;;8.80;5.05;;;;;;;;;;5048282;28;20593;-66
2021/01/26 05:26:00;;;;;;;7.70;4.75;;;;;;;;;;5046330;28;20231;-66
2021/01/26 05:28:26;;;;;;;10.25;5.70;;;;;;;;;;5040689;28;20228;-68
2021/01/26 05:31:04;;;;;;;10.18;5.13;;;;;;;;;;5050253;28;20203;-65
2021/01/26 05:33:31;;;;;;;9.00;5.03;;;;;;;;;;5046853;28;20203;-66
2021/01/26 05:36:00;;;;;;;9.85;5.25;;;;;;;;;;5046777;28;20228;-69
2021/01/26 05:38:26;;;;;;;9.60;4.95;;;;;;;;;;5048178;28;20201;-66
2021/01/26 05:40:54;;;;;;;10.93;5.82;;;;;;;;;;5044946;28;20184;-65
2021/01/26 05:43:22;;;;;;;9.82;5.80;;;;;;;;;;5047252;28;20207;-65
2021/01/26 05:45:53;;;;;;;8.43;5.00;;;;;;;;;;5047798;28;20639;-66
2021/01/26 05:48:21;;;;;;;8.20;4.93;;;;;;;;;;5046734;28;20219;-65
2021/01/26 05:50:48;;;;;;;15.02;9.85;;;;;;;;;;5047065;28;20287;-65
2021/01/26 05:53:20;;;;;;;43.20;29.27;;;;;;;;;;5048068;28;20189;-65
2021/01/26 05:56:09;;;;;;;12.30;7.10;;;;;;;;;;5035113;28;20204;-65
2021/01/26 05:58:37;;;;;;;10.15;4.75;;;;;;;;;;5046182;28;20193;-67
2021/01/26 06:01:06;;;;;;;8.00;4.85;;;;;;;;;;5048232;28;20193;-66
2021/01/26 06:03:33;;;;;;;8.57;4.90;;;;;;;;;;5045159;28;20204;-67
2021/01/26 06:06:05;;;;;;;11.32;7.05;;;;;;;;;;5046085;28;20233;-68
2021/01/26 06:08:32;;;;;;;41.50;24.70;;;;;;;;;;5036809;28;20239;-66
2021/01/26 06:10:59;;;;;;;28.08;18.75;;;;;;;;;;5047769;28;20212;-67
2021/01/26 06:13:29;;;;;;;5.95;2.30;;;;;;;;;;5047766;28;20640;-68
2021/01/26 06:16:20;;;;;;;4.10;2.42;;;;;;;;;;5045288;28;20203;-71
2021/01/26 06:18:54;;;;;;;6.25;2.58;;;;;;;;;;5046705;28;20204;-69
2021/01/26 06:21:20;;;;;;;3.70;2.10;;;;;;;;;;5045420;28;20196;-67
2021/01/26 06:23:47;;;;;;;6.43;2.78;;;;;;;;;;5047639;28;20200;-67
2021/01/26 06:26:13;;;;;;;4.95;2.67;;;;;;;;;;5036323;28;20185;-69
2021/01/26 06:28:46;;;;;;;6.00;2.50;;;;;;;;;;5038298;28;20224;-69
2021/01/26 06:31:18;;;;;;;5.65;2.85;;;;;;;;;;5038440;28;20176;-64
2021/01/26 06:33:45;;;;;;;46.58;33.20;;;;;;;;;;5038808;28;20225;-68
2021/01/26 06:36:30;;;;;;;43.38;29.17;;;;;;;;;;5035846;28;20233;-69
2021/01/26 06:39:02;;;;;;;7.80;2.47;;;;;;;;;;5045081;28;20196;-68
2021/01/26 06:41:46;;;;;;;6.90;2.33;;;;;;;;;;5045691;28;20571;-70
2021/01/26 06:44:13;;;;;;;5.57;2.42;;;;;;;;;;5045972;28;20287;-68
2021/01/26 06:46:57;;;;;;;6.28;2.40;;;;;;;;;;5045751;28;20195;-69
2021/01/26 06:49:40;;;;;;;3.97;2.40;;;;;;;;;;5044779;28;20216;-68
2021/01/26 06:52:16;;;;;;;5.47;2.72;;;;;;;;;;5045308;28;20674;-68
2021/01/26 06:54:55;;;;;;;7.05;2.92;;;;;;;;;;5044405;28;20199;-68
2021/01/26 06:57:21;;;;;;;5.80;2.70;;;;;;;;;;5045541;28;20281;-70
2021/01/26 07:00:06;;;;;;;3.85;2.53;;;;;;;;;;5047219;28;20181;-70
2021/01/26 07:02:33;;;;;;;4.60;2.20;;;;;;;;;;5051944;28;20192;-70
2021/01/26 07:05:18;;;;;;;3.80;2.30;;;;;;;;;;5047446;28;20201;-69
2021/01/26 07:07:50;;;;;;;3.30;2.30;;;;;;;;;;5046413;28;20597;-67
2021/01/26 07:10:25;;;;;;;6.68;2.10;;;;;;;;;;5042738;28;20276;-67
2021/01/26 07:12:57;;;;;;;5.28;3.08;;;;;;;;;;5048393;28;20195;-70
2021/01/26 07:15:30;;;;;;;5.10;2.50;;;;;;;;;;5050037;28;20197;-70
2021/01/26 07:18:15;;;;;;;4.28;2.55;;;;;;;;;;5048609;28;20267;-68
2021/01/26 07:21:08;;;;;;;7.22;3.75;;;;;;;;;;5049120;28;20219;-67
2021/01/26 07:23:46;;;;;;;5.00;2.70;;;;;;;;;;5051260;28;20711;-69
2021/01/26 07:26:38;;;;;;;6.50;3.00;;;;;;;;;;5051067;28;20212;-67
2021/01/26 07:29:10;;;;;;;2.42;1.70;;;;;;;;;;5049791;28;20310;-70
2021/01/26 07:31:43;;;;;;;4.47;2.00;;;;;;;;;;5047840;28;20212;-67
2021/01/26 07:34:18;;;;;;;3.42;1.77;;;;;;;;;;5051417;28;20242;-67
2021/01/26 07:36:53;;;;;;;3.20;1.70;;;;;;;;;;5049033;28;20286;-69
2021/01/26 07:39:38;;;;;;;4.05;1.90;;;;;;;;;;5048473;28;20186;-68
2021/01/26 07:42:12;;;;;;;2.80;1.25;;;;;;;;;;5049204;28;20192;-68
2021/01/26 07:44:39;;;;;;;5.50;2.45;;;;;;;;;;5048456;28;20294;-69
2021/01/26 07:47:15;;;;;;;4.93;2.70;;;;;;;;;;5051020;28;20193;-67
2021/01/26 07:49:48;;;;;;;8.05;4.28;;;;;;;;;;5048374;28;20897;-68
2021/01/26 07:52:15;;;;;;;9.95;3.10;;;;;;;;;;5051052;28;20342;-67
2021/01/26 07:54:45;;;;;;;3.75;2.80;;;;;;;;;;5050742;28;20177;-66
2021/01/26 07:57:15;;;;;;;1.90;1.38;;;;;;;;;;5039708;28;20197;-65
2021/01/26 07:59:46;;;;;;;2.65;1.20;;;;;;;;;;5041816;28;20185;-68
2021/01/26 08:02:16;;;;;;;3.30;1.60;;;;;;;;;;5043437;28;20211;-67
2021/01/26 08:04:43;;;;;;;1.75;1.50;;;;;;;;;;5044034;28;20197;-69
2021/01/26 08:07:20;;;;;;;3.67;2.00;;;;;;;;;;5040500;28;20734;-68
2021/01/26 08:09:48;;;;;;;4.68;2.33;;;;;;;;;;5048708;28;20223;-67
2021/01/26 08:12:19;;;;;;;4.72;2.67;;;;;;;;;;5050997;28;20185;-67
2021/01/26 08:14:48;;;;;;;5.18;3.15;;;;;;;;;;5050192;28;20185;-66
2021/01/26 08:17:16;;;;;;;4.28;3.20;;;;;;;;;;5039558;28;20200;-66
2021/01/26 08:19:43;;;;;;;6.05;3.25;;;;;;;;;;5040197;28;20184;-69
2021/01/26 08:22:15;;;;;;;5.13;2.50;;;;;;;;;;5040976;28;20194;-68
2021/01/26 08:24:41;;;;;;;4.55;2.88;;;;;;;;;;5048180;28;20199;-66
2021/01/26 08:27:23;;;;;;;4.63;2.80;;;;;;;;;;5049277;28;20188;-68
2021/01/26 08:29:49;;;;;;;5.07;2.35;;;;;;;;;;5049369;28;20227;-66
2021/01/26 08:32:27;;;;;;;4.90;2.60;;;;;;;;;;5041552;28;20200;-69
2021/01/26 08:35:01;;;;;;;2.97;1.88;;;;;;;;;;5047652;28;20677;-70
2021/01/26 08:37:31;;;;;;;4.00;2.03;;;;;;;;;;5050303;28;20226;-70
2021/01/26 08:40:00;;;;;;;4.55;2.38;;;;;;;;;;5048444;28;20275;-67
2021/01/26 08:42:47;;;;;;;3.38;2.05;;;;;;;;;;5050295;28;20245;-67
2021/01/26 08:45:16;;;;;;;3.65;1.85;;;;;;;;;;5046881;28;20319;-71
2021/01/26 08:48:02;;;;;;;3.97;2.10;;;;;;;;;;5051018;28;20726;-66
2021/01/26 08:50:31;;;;;;;7.78;3.53;;;;;;;;;;5042255;28;20192;-67
2021/01/26 08:53:17;;;;;;;9.88;2.92;;;;;;;;;;5047579;28;20181;-68
2021/01/26 08:55:45;;;;;;;3.65;1.73;;;;;;;;;;5048022;28;20591;-68
2021/01/26 08:58:12;;;;;;;5.97;1.65;;;;;;;;;;5049863;28;20210;-69
2021/01/26 09:00:40;;;;;;;4.03;1.63;;;;;;;;;;5050034;28;20307;-68
2021/01/26 09:03:26;;;;;;;2.38;1.20;;;;;;;;;;5050002;28;20207;-68
2021/01/26 09:05:54;;;;;;;4.45;1.90;;;;;;;;;;5049046;28;20176;-68
2021/01/26 09:08:38;;;;;;;5.82;2.08;;;;;;;;;;5049398;28;20254;-70
2021/01/26 09:11:06;;;;;;;2.28;1.55;;;;;;;;;;5048059;28;20689;-68
2021/01/26 09:13:33;;;;;;;5.35;2.75;;;;;;;;;;5049479;28;20188;-71
2021/01/26 09:16:10;;;;;;;2.95;1.85;;;;;;;;;;5049245;28;20197;-69
2021/01/26 09:18:37;;;;;;;3.28;2.08;;;;;;;;;;5046496;28;20314;-69
2021/01/26 09:21:04;;;;;;;5.25;2.25;;;;;;;;;;5049313;28;20192;-70
2021/01/26 09:23:31;;;;;;;3.83;2.22;;;;;;;;;;5041273;28;20320;-70
2021/01/26 09:25:58;;;;;;;4.00;1.95;;;;;;;;;;5047247;28;20277;-67
2021/01/26 09:28:25;;;;;;;2.75;1.80;;;;;;;;;;5049844;28;20270;-67
2021/01/26 09:30:59;;;;;;;4.50;2.75;;;;;;;;;;5049984;28;20213;-71
2021/01/26 09:33:29;;;;;;;4.50;2.80;;;;;;;;;;5051013;28;20181;-74
2021/01/26 09:36:02;;;;;;;7.40;3.72;;;;;;;;;;5055162;28;20554;-65
2021/01/26 09:38:41;;;;;;;5.35;3.85;;;;;;;;;;5051746;28;20618;-66
2021/01/26 09:41:07;;;;;;;7.78;4.32;;;;;;;;;;5062243;28;20341;-67
2021/01/26 09:43:35;;;;;;;8.13;4.82;;;;;;;;;;5060633;28;20188;-66
2021/01/26 09:46:22;;;;;;;11.95;4.97;;;;;;;;;;5063143;28;20203;-64
2021/01/26 09:48:50;;;;;;;7.95;4.97;;;;;;;;;;5057864;28;20255;-67
2021/01/26 09:51:28;;;;;;;9.15;5.00;;;;;;;;;;5062499;28;20204;-64
2021/01/26 09:54:01;;;;;;;7.38;4.97;;;;;;;;;;5061082;28;20212;-67
2021/01/26 09:56:29;;;;;;;6.55;3.90;;;;;;;;;;5065927;28;20239;-67
2021/01/26 09:58:55;;;;;;;10.15;4.88;;;;;;;;;;5064215;28;20185;-67
2021/01/26 10:01:22;;;;;;;8.32;4.88;;;;;;;;;;5061340;28;20193;-67
2021/01/26 10:03:52;;;;;;;8.90;4.85;;;;;;;;;;5063840;28;20199;-65
2021/01/26 10:06:19;;;;;;;7.30;4.15;;;;;;;;;;5059341;28;20197;-68
2021/01/26 10:08:45;;;;;;;7.03;3.55;;;;;;;;;;5060228;28;20220;-67
2021/01/26 10:11:13;;;;;;;6.88;4.10;;;;;;;;;;5051118;28;20196;-69
2021/01/26 10:13:41;;;;;;;6.10;3.88;;;;;;;;;;5063973;28;20185;-69
2021/01/26 10:16:26;;;;;;;6.13;3.65;;;;;;;;;;5065683;28;20232;-65
2021/01/26 10:18:54;;;;;;;5.78;3.78;;;;;;;;;;5065775;28;20268;-68
2021/01/26 10:21:28;;;;;;;9.00;3.47;;;;;;;;;;5063358;28;20199;-67
2021/01/26 10:23:59;;;;;;;6.28;3.30;;;;;;;;;;5064812;28;20678;-70
2021/01/26 10:26:26;;;;;;;6.22;3.17;;;;;;;;;;5062523;28;20583;-69
2021/01/26 10:29:00;;;;;;;6.30;3.85;;;;;;;;;;5053300;28;20216;-68
2021/01/26 10:31:28;;;;;;;5.75;3.63;;;;;;;;;;5064491;28;20242;-64
2021/01/26 10:33:55;;;;;;;11.05;5.28;;;;;;;;;;5062228;28;20871;-65
2021/01/26 10:36:27;;;;;;;7.57;3.58;;;;;;;;;;5064376;28;20619;-64
2021/01/26 10:38:55;;;;;;;4.68;3.30;;;;;;;;;;5054054;28;20209;-65
2021/01/26 10:41:26;;;;;;;5.28;3.15;;;;;;;;;;5066730;28;20182;-65
2021/01/26 10:44:11;;;;;;;5.90;3.30;;;;;;;;;;5065259;28;20318;-66
2021/01/26 10:46:39;;;;;;;5.65;3.83;;;;;;;;;;5068762;28;20192;-69
2021/01/26 10:49:09;;;;;;;5.18;4.03;;;;;;;;;;5068803;28;20224;-65
2021/01/26 10:51:39;;;;;;;8.25;5.10;;;;;;;;;;5065049;28;20180;-65
2021/01/26 10:54:06;;;;;;;8.85;4.90;;;;;;;;;;5063941;28;20200;-65
2021/01/26 10:56:33;;;;;;;9.13;4.90;;;;;;;;;;5065094;28;20291;-70
2021/01/26 10:58:59;;;;;;;6.20;4.40;;;;;;;;;;5051927;28;20221;-67
2021/01/26 11:01:25;;;;;;;8.25;5.00;;;;;;;;;;5051909;28;20184;-70
2021/01/26 11:03:52;;;;;;;9.73;4.88;;;;;;;;;;5041084;28;20268;-68
2021/01/26 11:06:20;;;;;;;7.25;4.65;;;;;;;;;;5042364;28;20984;-68
2021/01/26 11:08:47;;;;;;;6.78;4.60;;;;;;;;;;5041285;28;20217;-66
2021/01/26 11:11:15;;;;;;;5.90;3.50;;;;;;;;;;5050854;28;20235;-68
2021/01/26 11:13:41;;;;;;;4.97;3.58;;;;;;;;;;5048614;28;20192;-70
2021/01/26 11:16:07;;;;;;;7.75;4.78;;;;;;;;;;5051414;28;20201;-69
2021/01/26 11:18:34;;;;;;;7.30;3.65;;;;;;;;;;5051524;28;20193;-70
2021/01/26 11:21:01;;;;;;;7.50;3.90;;;;;;;;;;5048622;28;20200;-68
2021/01/26 11:23:28;;;;;;;5.38;3.92;;;;;;;;;;5051476;28;20207;-66
2021/01/26 11:25:55;;;;;;;4.45;3.00;;;;;;;;;;5040166;28;20654;-67
2021/01/26 11:28:22;;;;;;;7.03;3.50;;;;;;;;;;5050947;28;20266;-70
2021/01/26 11:30:48;;;;;;;7.63;3.70;;;;;;;;;;5051108;28;20263;-69
2021/01/26 11:33:15;;;;;;;5.40;3.72;;;;;;;;;;5052812;28;20202;-68
2021/01/26 11:35:41;;;;;;;5.95;3.42;;;;;;;;;;5050925;28;20239;-67
2021/01/26 11:38:08;;;;;;;4.75;3.40;;;;;;;;;;5051429;28;20201;-68
2021/01/26 11:40:34;;;;;;;7.22;3.75;;;;;;;;;;5051212;28;20512;-68
2021/01/26 11:43:01;;;;;;;5.28;3.72;;;;;;;;;;5051082;28;20220;-68
2021/01/26 11:45:31;;;;;;;7.00;4.25;;;;;;;;;;5050807;28;20918;-68
2021/01/26 11:47:59;;;;;;;5.45;4.20;;;;;;;;;;5039843;28;20181;-68
2021/01/26 11:50:26;;;;;;;5.68;3.78;;;;;;;;;;5050939;28;20307;-69
2021/01/26 11:52:53;;;;;;;6.50;4.38;;;;;;;;;;5051993;28;20222;-71
2021/01/26 11:55:21;;;;;;;6.10;4.57;;;;;;;;;;5051238;28;20221;-67
2021/01/26 11:57:48;;;;;;;6.03;4.47;;;;;;;;;;5051290;28;20222;-66
2021/01/26 12:00:16;;;;;;;7.78;5.10;;;;;;;;;;5049825;28;20199;-70
2021/01/26 12:02:43;;;;;;;7.75;5.05;;;;;;;;;;5049135;28;20667;-67
2021/01/26 12:05:10;;;;;;;9.10;5.03;;;;;;;;;;5051339;28;20721;-68
2021/01/26 12:07:37;;;;;;;10.30;5.25;;;;;;;;;;5040506;28;20574;-67
2021/01/26 12:10:04;;;;;;;9.68;5.70;;;;;;;;;;5048239;28;20205;-67
2021/01/26 12:12:30;;;;;;;9.43;6.13;;;;;;;;;;5050909;28;20298;-69
2021/01/26 12:14:58;;;;;;;9.25;6.50;;;;;;;;;;5050720;28;20268;-72
2021/01/26 12:17:24;;;;;;;10.48;6.40;;;;;;;;;;5048182;28;20189;-70
2021/01/26 12:19:51;;;;;;;9.68;5.57;;;;;;;;;;5050218;28;20203;-70
2021/01/26 12:22:17;;;;;;;8.27;6.30;;;;;;;;;;5050821;28;20189;-66
2021/01/26 12:24:43;;;;;;;8.70;6.10;;;;;;;;;;5050694;28;20203;-67
2021/01/26 12:27:10;;;;;;;9.73;6.50;;;;;;;;;;5050723;28;20215;-66
2021/01/26 12:29:37;;;;;;;10.13;7.18;;;;;;;;;;5041087;28;20225;-68
2021/01/26 12:32:03;;;;;;;10.25;7.20;;;;;;;;;;5044274;28;20211;-67
2021/01/26 12:34:29;;;;;;;10.27;6.32;;;;;;;;;;5044921;28;20190;-69
2021/01/26 12:36:58;;;;;;;8.27;6.38;;;;;;;;;;5049993;28;20293;-68
2021/01/26 12:39:27;;;;;;;11.07;7.97;;;;;;;;;;5048886;28;20550;-67
2021/01/26 12:41:53;;;;;;;11.13;8.07;;;;;;;;;;5049297;28;20193;-67
2021/01/26 12:44:20;;;;;;;10.48;8.27;;;;;;;;;;5045629;28;20276;-68
2021/01/26 12:46:46;;;;;;;10.18;7.60;;;;;;;;;;5048592;28;20195;-69
2021/01/26 12:49:13;;;;;;;9.00;6.63;;;;;;;;;;5048377;28;21643;-71
2021/01/26 12:51:39;;;;;;;9.13;5.90;;;;;;;;;;5045618;28;20188;-69
2021/01/26 12:54:05;;;;;;;8.65;6.55;;;;;;;;;;5048737;28;20267;-69
2021/01/26 12:56:31;;;;;;;9.77;6.50;;;;;;;;;;5048193;28;20600;-68
2021/01/26 12:58:58;;;;;;;8.52;6.20;;;;;;;;;;5048535;28;20678;-66
2021/01/26 13:01:25;;;;;;;8.07;6.10;;;;;;;;;;5048784;28;20199;-70
2021/01/26 13:03:52;;;;;;;11.10;6.80;;;;;;;;;;5052415;28;20656;-69
2021/01/26 13:06:18;;;;;;;10.98;7.22;;;;;;;;;;5048404;28;20200;-68
2021/01/26 13:08:44;;;;;;;13.23;7.43;;;;;;;;;;5048257;28;20243;-67
2021/01/26 13:11:16;;;;;;;11.40;8.15;;;;;;;;;;5048566;28;20197;-70
2021/01/26 13:13:44;;;;;;;12.60;8.90;;;;;;;;;;5038705;28;20224;-68
2021/01/26 13:16:10;;;;;;;9.55;6.97;;;;;;;;;;5038432;28;20193;-69
2021/01/26 13:18:37;;;;;;;13.88;8.75;;;;;;;;;;5037402;28;20212;-68
2021/01/26 13:21:04;;;;;;;12.73;8.07;;;;;;;;;;5038396;28;20204;-68
2021/01/26 13:23:30;;;;;;;10.32;6.93;;;;;;;;;;5038674;28;20181;-69
2021/01/26 13:25:56;;;;;;;9.25;6.47;;;;;;;;;;5036703;28;20686;-68
2021/01/26 13:28:23;;;;;;;10.35;6.85;;;;;;;;;;5039800;28;20193;-70
2021/01/26 13:30:49;;;;;;;12.85;7.10;;;;;;;;;;5038723;28;20217;-69
2021/01/26 13:33:16;;;;;;;9.82;6.55;;;;;;;;;;5037345;28;20190;-68
2021/01/26 13:35:43;;;;;;;13.82;6.93;;;;;;;;;;5025799;28;632440;-68
2021/01/26 13:38:11;;;;;;;11.13;7.03;;;;;;;;;;5048540;28;20193;-68
2021/01/26 13:40:38;;;;;;;12.95;7.40;;;;;;;;;;5048140;28;20707;-69
2021/01/26 13:43:05;;;;;;;11.13;7.18;;;;;;;;;;5048794;28;20177;-66
2021/01/26 13:45:33;;;;;;;10.90;5.55;;;;;;;;;;5048727;28;20181;-71
2021/01/26 13:48:00;;;;;;;11.88;6.45;;;;;;;;;;5037977;28;20194;-69
2021/01/26 13:50:28;;;;;;;14.55;7.85;;;;;;;;;;5038888;28;20294;-69
2021/01/26 13:52:55;;;;;;;14.05;9.00;;;;;;;;;;5039921;28;20255;-69
2021/01/26 13:55:24;;;;;;;14.52;8.95;;;;;;;;;;5045634;28;20188;-68
2021/01/26 13:57:50;;;;;;;11.15;8.52;;;;;;;;;;5048801;28;20203;-68
2021/01/26 14:00:18;;;;;;;12.68;8.82;;;;;;;;;;5048343;28;20208;-71
2021/01/26 14:02:44;;;;;;;10.85;7.25;;;;;;;;;;5048732;28;20283;-68
2021/01/26 14:05:10;;;;;;;8.90;6.60;;;;;;;;;;5048876;28;20269;-70
2021/01/26 14:07:38;;;;;;;8.93;6.45;;;;;;;;;;5048728;28;20189;-71
2021/01/26 14:10:06;;;;;;;12.75;6.85;;;;;;;;;;5039308;28;20231;-74
2021/01/26 14:12:33;;;;;;;12.93;7.30;;;;;;;;;;5039294;28;20609;-71
2021/01/26 14:14:59;;;;;;;11.60;7.22;;;;;;;;;;5037033;28;20191;-70
2021/01/26 14:17:25;;;;;;;13.73;6.60;;;;;;;;;;5039211;28;20194;-69
2021/01/26 14:19:53;;;;;;;13.02;6.47;;;;;;;;;;5038552;28;20207;-70
2021/01/26 14:22:19;;;;;;;9.10;6.38;;;;;;;;;;5048586;28;20219;-66
2021/01/26 14:24:46;;;;;;;8.63;6.25;;;;;;;;;;5036217;28;20266;-70
2021/01/26 14:27:12;;;;;;;10.05;5.78;;;;;;;;;;5038896;28;20711;-67
2021/01/26 14:29:41;;;;;;;12.88;7.15;;;;;;;;;;5036488;28;20221;-67
2021/01/26 14:32:08;;;;;;;8.25;5.57;;;;;;;;;;5041630;28;20185;-68
2021/01/26 14:34:34;;;;;;;9.13;5.95;;;;;;;;;;5040845;28;20199;-69
2021/01/26 14:37:20;;;;;;;7.70;5.22;;;;;;;;;;5048247;28;20297;-67
2021/01/26 14:39:46;;;;;;;7.43;5.35;;;;;;;;;;5039371;28;20497;-66
2021/01/26 14:42:13;;;;;;;8.68;5.97;;;;;;;;;;5039244;28;20307;-69
2021/01/26 14:44:42;;;;;;;10.98;6.45;;;;;;;;;;5037149;28;20206;-69
2021/01/26 14:47:08;;;;;;;10.60;6.65;;;;;;;;;;5038947;28;20281;-68
2021/01/26 14:49:35;;;;;;;7.65;5.65;;;;;;;;;;5038740;28;20228;-67
2021/01/26 14:52:01;;;;;;;9.40;6.55;;;;;;;;;;5037359;28;20185;-69